createdAt,value
2018-06-13T00:00:06.223Z,65.50
2018-06-13T00:02:35.088Z,64.70
2018-06-13T00:05:03.877Z,64.70
2018-06-13T00:07:32.976Z,64.40
2018-06-13T00:10:01.874Z,64.70
2018-06-13T00:12:30.876Z,64.50
2018-06-13T00:14:59.800Z,64.60
2018-06-13T00:17:28.546Z,64.60
2018-06-13T00:19:57.544Z,64.80
2018-06-13T00:22:26.412Z,64.70
2018-06-13T00:24:55.114Z,65.10
2018-06-13T00:27:23.812Z,65.20
2018-06-13T00:29:52.577Z,65.50
2018-06-13T00:32:21.393Z,65.60
2018-06-13T00:34:50.258Z,65.20
2018-06-13T00:37:19.237Z,64.80
2018-06-13T00:39:48.141Z,64.90
2018-06-13T00:42:17.081Z,64.90
2018-06-13T00:44:45.929Z,65.10
2018-06-13T00:47:14.826Z,65.10
2018-06-13T00:49:45.458Z,65.20
2018-06-13T00:52:14.266Z,65.10
2018-06-13T00:54:42.938Z,65.00
2018-06-13T00:57:11.818Z,65.20
2018-06-13T00:59:40.826Z,65.10
2018-06-13T01:02:09.832Z,65.60
2018-06-13T01:04:38.795Z,65.20
2018-06-13T01:07:07.789Z,65.10
2018-06-13T01:09:36.680Z,65.10
2018-06-13T01:12:05.806Z,65.50
2018-06-13T01:17:03.242Z,65.50
2018-06-13T01:19:32.245Z,65.90
2018-06-13T01:22:01.135Z,65.60
2018-06-13T01:24:30.438Z,65.00
2018-06-13T01:26:59.567Z,65.10
2018-06-13T01:29:28.328Z,65.30
2018-06-13T01:31:57.312Z,64.90
2018-06-13T01:34:26.281Z,65.10
2018-06-13T01:36:55.004Z,64.80
2018-06-13T01:39:24.069Z,64.70
2018-06-13T01:41:52.824Z,65.30
2018-06-13T01:44:21.951Z,64.90
2018-06-13T01:46:51.012Z,65.10
2018-06-13T01:49:20.197Z,65.10
2018-06-13T01:51:48.985Z,65.40
2018-06-13T01:54:17.880Z,65.50
2018-06-13T01:56:47.149Z,65.30
2018-06-13T01:59:16.143Z,65.20
2018-06-13T02:01:45.158Z,65.10
2018-06-13T02:04:14.217Z,65.20
2018-06-13T02:06:42.949Z,65.60
2018-06-13T02:09:11.706Z,65.60
2018-06-13T02:11:40.700Z,66.70
2018-06-13T02:14:09.593Z,65.90
2018-06-13T02:16:38.479Z,65.80
2018-06-13T02:19:08.272Z,65.70
2018-06-13T02:21:37.033Z,66.20
2018-06-13T02:24:06.051Z,66.10
2018-06-13T02:26:34.808Z,66.40
2018-06-13T02:29:03.722Z,66.30
2018-06-13T02:31:32.716Z,66.80
2018-06-13T02:34:01.639Z,66.80
2018-06-13T02:36:30.526Z,66.50
2018-06-13T02:38:59.389Z,66.90
2018-06-13T02:41:28.247Z,67.00
2018-06-13T02:43:57.179Z,67.00
2018-06-13T02:46:26.009Z,66.90
2018-06-13T02:48:55.209Z,66.70
2018-06-13T02:51:23.961Z,66.50
2018-06-13T02:53:52.877Z,67.20
2018-06-13T02:56:21.671Z,66.40
2018-06-13T02:58:51.887Z,66.60
2018-06-13T03:01:20.922Z,66.70
2018-06-13T03:03:49.792Z,67.20
2018-06-13T03:06:18.689Z,67.00
2018-06-13T03:08:50.414Z,67.00
2018-06-13T03:11:19.319Z,66.60
2018-06-13T03:13:48.303Z,67.00
2018-06-13T03:16:17.298Z,67.40
2018-06-13T03:18:46.135Z,66.80
2018-06-13T03:21:14.914Z,66.90
2018-06-13T03:23:43.836Z,66.60
2018-06-13T03:26:12.604Z,67.30
2018-06-13T03:28:41.404Z,67.20
2018-06-13T03:31:10.178Z,66.90
2018-06-13T03:33:39.020Z,66.40
2018-06-13T03:36:07.900Z,66.70
2018-06-13T03:38:36.645Z,66.40
2018-06-13T03:41:05.435Z,66.80
2018-06-13T03:43:34.247Z,66.10
2018-06-13T03:46:03.005Z,66.70
2018-06-13T03:48:31.767Z,66.30
2018-06-13T03:51:00.706Z,67.00
2018-06-13T03:53:29.544Z,67.20
2018-06-13T03:55:58.282Z,67.60
2018-06-13T04:00:55.945Z,67.60
2018-06-13T04:03:24.722Z,67.90
2018-06-13T04:05:53.492Z,68.60
2018-06-13T04:08:22.242Z,67.20
2018-06-13T04:10:51.112Z,67.50
2018-06-13T04:13:19.881Z,67.10
2018-06-13T04:15:48.648Z,67.50
2018-06-13T04:18:19.548Z,67.90
2018-06-13T04:20:48.190Z,67.90
2018-06-13T04:23:16.950Z,68.00
2018-06-13T04:25:46.926Z,67.50
2018-06-13T04:28:15.998Z,68.00
2018-06-13T04:30:45.360Z,67.50
2018-06-13T04:35:42.778Z,68.30
2018-06-13T04:38:11.578Z,67.80
2018-06-13T04:40:40.656Z,68.10
2018-06-13T04:45:37.842Z,68.90
2018-06-13T04:48:06.705Z,69.10
2018-06-13T04:50:35.507Z,69.60
2018-06-13T04:53:04.226Z,69.60
2018-06-13T04:55:32.871Z,70.20
2018-06-13T04:58:01.809Z,70.20
2018-06-13T05:00:31.715Z,70.90
2018-06-13T05:03:00.389Z,71.10
2018-06-13T05:05:29.141Z,71.00
2018-06-13T05:07:57.866Z,71.50
2018-06-13T05:10:29.013Z,70.60
2018-06-13T05:12:57.928Z,70.80
2018-06-13T05:15:26.847Z,71.50
2018-06-13T05:17:55.565Z,71.30
2018-06-13T05:20:27.187Z,71.70
2018-06-13T05:22:56.175Z,71.40
2018-06-13T05:25:25.070Z,71.50
2018-06-13T05:27:55.225Z,71.70
2018-06-13T05:30:24.084Z,71.00
2018-06-13T05:32:52.761Z,71.30
2018-06-13T05:35:21.527Z,71.40
2018-06-13T05:37:50.480Z,71.40
2018-06-13T05:40:19.208Z,72.40
2018-06-13T05:42:48.208Z,72.40
2018-06-13T05:45:17.289Z,72.20
2018-06-13T05:47:46.298Z,72.10
2018-06-13T05:50:15.137Z,72.10
2018-06-13T05:52:43.953Z,72.00
2018-06-13T05:55:12.821Z,71.80
2018-06-13T05:57:41.755Z,71.80
2018-06-13T06:00:10.567Z,71.80
2018-06-13T06:02:39.358Z,71.50
2018-06-13T06:05:08.287Z,71.50
2018-06-13T06:07:37.092Z,71.30
2018-06-13T06:10:06.184Z,71.10
2018-06-13T06:12:35.170Z,71.20
2018-06-13T06:15:04.028Z,71.00
2018-06-13T06:17:33.145Z,70.90
2018-06-13T06:20:02.042Z,70.70
2018-06-13T06:22:30.815Z,70.50
2018-06-13T06:24:59.560Z,70.40
2018-06-13T06:27:28.486Z,70.40
2018-06-13T06:29:57.313Z,70.80
2018-06-13T06:32:26.208Z,71.60
2018-06-13T06:34:55.177Z,70.50
2018-06-13T06:37:24.451Z,70.90
2018-06-13T06:39:53.438Z,71.00
2018-06-13T06:42:22.417Z,71.50
2018-06-13T06:44:51.426Z,72.00
2018-06-13T06:47:20.195Z,72.00
2018-06-13T06:49:49.152Z,72.00
2018-06-13T06:52:18.442Z,71.50
2018-06-13T06:54:47.303Z,71.20
2018-06-13T06:57:16.319Z,70.80
2018-06-13T06:59:45.409Z,70.30
2018-06-13T07:02:14.313Z,70.20
2018-06-13T07:04:43.145Z,70.90
2018-06-13T07:07:12.260Z,70.80
2018-06-13T07:09:41.565Z,70.90
2018-06-13T07:12:10.908Z,70.30
2018-06-13T07:14:39.874Z,69.30
2018-06-13T07:17:08.832Z,69.30
2018-06-13T07:19:37.726Z,69.50
2018-06-13T07:22:06.616Z,69.20
2018-06-13T07:24:35.404Z,69.40
2018-06-13T07:27:04.260Z,68.90
2018-06-13T07:29:33.049Z,68.70
2018-06-13T07:32:02.105Z,69.20
2018-06-13T07:34:30.785Z,69.00
2018-06-13T07:36:59.514Z,69.00
2018-06-13T07:39:28.388Z,68.00
2018-06-13T07:41:57.233Z,68.00
2018-06-13T07:44:25.914Z,67.20
2018-06-13T07:46:56.089Z,66.40
2018-06-13T07:49:25.314Z,66.30
2018-06-13T07:51:55.121Z,66.60
2018-06-13T07:56:55.451Z,67.20
2018-06-13T07:59:24.549Z,66.80
2018-06-13T08:01:54.544Z,67.30
2018-06-13T08:04:23.925Z,67.50
2018-06-13T08:06:52.847Z,68.40
2018-06-13T08:09:21.616Z,67.30
2018-06-13T08:11:50.384Z,67.40
2018-06-13T08:14:19.112Z,67.60
2018-06-13T08:16:47.906Z,67.90
2018-06-13T08:19:16.580Z,68.80
2018-06-13T08:21:45.333Z,66.80
2018-06-13T08:24:14.102Z,65.10
2018-06-13T08:26:42.913Z,65.60
2018-06-13T08:29:13.503Z,64.80
2018-06-13T08:31:42.228Z,64.60
2018-06-13T08:34:10.915Z,65.30
2018-06-13T08:36:40.243Z,66.30
2018-06-13T08:39:09.254Z,66.00
2018-06-13T08:41:38.863Z,66.00
2018-06-13T08:44:08.351Z,65.30
2018-06-13T08:46:37.789Z,65.50
2018-06-13T08:49:06.631Z,66.10
2018-06-13T08:51:35.937Z,66.70
2018-06-13T08:54:05.225Z,66.50
2018-06-13T08:56:35.050Z,66.10
2018-06-13T08:59:04.601Z,66.10
2018-06-13T09:01:34.063Z,66.00
2018-06-13T09:04:02.897Z,66.30
2018-06-13T09:06:31.657Z,65.00
2018-06-13T09:09:00.980Z,65.20
2018-06-13T09:13:58.096Z,65.80
2018-06-13T09:16:26.949Z,65.40
2018-06-13T09:18:55.761Z,65.50
2018-06-13T09:21:24.992Z,65.70
2018-06-13T09:23:54.056Z,65.10
2018-06-13T09:26:23.141Z,64.70
2018-06-13T09:28:51.841Z,64.60
2018-06-13T09:31:20.820Z,64.30
2018-06-13T09:33:49.543Z,64.00
2018-06-13T09:36:18.212Z,64.10
2018-06-13T09:38:46.994Z,63.60
2018-06-13T09:41:16.135Z,62.90
2018-06-13T09:43:44.970Z,62.80
2018-06-13T09:46:13.918Z,63.20
2018-06-13T09:48:42.666Z,62.00
2018-06-13T09:51:11.371Z,62.30
2018-06-13T09:53:40.247Z,62.90
2018-06-13T09:56:09.020Z,63.40
2018-06-13T09:58:42.951Z,62.70
2018-06-13T10:01:17.239Z,62.80
2018-06-13T10:03:46.180Z,62.90
2018-06-13T10:06:14.892Z,62.10
2018-06-13T10:08:43.567Z,62.30
2018-06-13T10:11:12.296Z,62.10
2018-06-13T10:13:40.930Z,61.00
2018-06-13T10:16:10.024Z,59.50
2018-06-13T10:18:38.695Z,59.10
2018-06-13T10:21:07.562Z,58.90
2018-06-13T10:23:36.262Z,58.20
2018-06-13T10:26:05.025Z,58.30
2018-06-13T10:28:33.725Z,58.00
2018-06-13T10:31:02.377Z,57.70
2018-06-13T10:33:31.102Z,57.80
2018-06-13T10:36:00.075Z,57.90
2018-06-13T10:38:28.787Z,58.10
2018-06-13T10:40:57.482Z,57.70
2018-06-13T10:43:26.112Z,57.90
2018-06-13T10:45:54.780Z,58.20
2018-06-13T10:48:23.601Z,57.80
2018-06-13T10:50:52.325Z,58.60
2018-06-13T10:53:20.955Z,57.90
2018-06-13T10:55:50.521Z,57.50
2018-06-13T10:58:19.174Z,57.30
2018-06-13T11:00:47.876Z,58.00
2018-06-13T11:03:16.567Z,58.10
2018-06-13T11:05:45.229Z,57.50
2018-06-13T11:08:14.141Z,57.20
2018-06-13T11:10:42.870Z,57.70
2018-06-13T11:13:11.684Z,58.00
2018-06-13T11:15:40.764Z,57.20
2018-06-13T11:18:09.555Z,57.60
2018-06-13T11:20:38.233Z,57.30
2018-06-13T11:23:07.041Z,58.00
2018-06-13T11:25:35.840Z,58.90
2018-06-13T11:28:04.743Z,58.80
2018-06-13T11:30:33.364Z,58.10
2018-06-13T11:33:02.089Z,57.60
2018-06-13T11:35:30.728Z,56.70
2018-06-13T11:37:59.617Z,56.70
2018-06-13T11:40:28.352Z,56.60
2018-06-13T11:42:57.115Z,56.40
2018-06-13T11:45:25.807Z,56.70
2018-06-13T11:47:54.543Z,56.90
2018-06-13T11:50:23.244Z,56.80
2018-06-13T11:52:51.877Z,56.30
2018-06-13T11:55:20.566Z,56.50
2018-06-13T11:57:49.212Z,56.40
2018-06-13T12:00:18.016Z,56.90
2018-06-13T12:02:46.772Z,56.70
2018-06-13T12:05:15.484Z,57.80
2018-06-13T12:07:44.125Z,56.80
2018-06-13T12:10:12.837Z,57.10
2018-06-13T12:12:41.503Z,57.20
2018-06-13T12:15:10.161Z,56.70
2018-06-13T12:17:38.813Z,57.60
2018-06-13T12:20:07.481Z,57.20
2018-06-13T12:22:36.185Z,58.00
2018-06-13T12:25:05.022Z,58.20
2018-06-13T12:27:33.801Z,58.00
2018-06-13T12:30:02.745Z,58.60
2018-06-13T12:32:31.397Z,58.30
2018-06-13T12:35:01.081Z,58.40
2018-06-13T12:37:29.942Z,57.60
2018-06-13T12:39:58.821Z,56.40
2018-06-13T12:42:27.575Z,56.10
2018-06-13T12:44:56.482Z,56.60
2018-06-13T12:47:25.161Z,55.80
2018-06-13T12:49:53.964Z,54.90
2018-06-13T12:52:22.808Z,55.10
2018-06-13T12:54:51.569Z,54.40
2018-06-13T12:57:20.357Z,55.10
2018-06-13T12:59:48.996Z,55.80
2018-06-13T13:02:17.947Z,55.80
2018-06-13T13:04:46.691Z,56.20
2018-06-13T13:07:15.403Z,55.80
2018-06-13T13:09:44.224Z,56.00
2018-06-13T13:12:13.072Z,56.10
2018-06-13T13:14:41.983Z,56.50
2018-06-13T13:17:10.955Z,55.70
2018-06-13T13:19:39.788Z,55.20
2018-06-13T13:22:08.639Z,55.00
2018-06-13T13:24:37.893Z,55.00
2018-06-13T13:27:06.613Z,55.40
2018-06-13T13:29:35.337Z,54.90
2018-06-13T13:32:04.085Z,54.10
2018-06-13T13:34:32.788Z,53.80
2018-06-13T13:37:01.833Z,54.20
2018-06-13T13:39:30.593Z,54.80
2018-06-13T13:41:59.297Z,55.10
2018-06-13T13:44:28.070Z,54.60
2018-06-13T13:46:56.919Z,55.30
2018-06-13T13:49:25.670Z,55.10
2018-06-13T13:51:54.548Z,55.00
2018-06-13T13:54:23.196Z,54.60
2018-06-13T13:56:51.876Z,54.90
2018-06-13T13:59:20.568Z,55.10
2018-06-13T14:01:49.407Z,54.70
2018-06-13T14:04:18.200Z,55.00
2018-06-13T14:06:46.868Z,55.90
2018-06-13T14:09:15.536Z,55.70
2018-06-13T14:11:44.191Z,55.40
2018-06-13T14:14:13.071Z,55.90
2018-06-13T14:16:41.705Z,56.70
2018-06-13T14:19:10.328Z,57.30
2018-06-13T14:21:39.200Z,56.80
2018-06-13T14:24:07.817Z,57.30
2018-06-13T14:26:37.116Z,57.00
2018-06-13T14:31:34.172Z,57.10
2018-06-13T14:34:02.969Z,57.30
2018-06-13T14:36:31.993Z,57.60
2018-06-13T14:39:00.704Z,57.70
2018-06-13T14:41:29.325Z,57.70
2018-06-13T14:43:58.073Z,57.70
2018-06-13T14:46:26.785Z,58.00
2018-06-13T14:48:55.654Z,57.90
2018-06-13T14:51:24.478Z,58.50
2018-06-13T14:53:55.536Z,58.40
2018-06-13T14:56:27.523Z,58.20
2018-06-13T14:58:56.928Z,58.90
2018-06-13T15:01:25.757Z,58.60
2018-06-13T15:03:54.590Z,58.90
2018-06-13T15:06:23.937Z,59.20
2018-06-13T15:08:52.695Z,59.80
2018-06-13T15:11:21.375Z,61.00
2018-06-13T15:13:50.091Z,61.70
2018-06-13T15:16:18.736Z,61.40
2018-06-13T15:21:16.220Z,61.60
2018-06-13T15:23:45.036Z,62.10
2018-06-13T15:26:13.768Z,61.70
2018-06-13T15:28:42.409Z,61.60
2018-06-13T15:31:11.213Z,63.20
2018-06-13T15:33:39.832Z,62.40
2018-06-13T15:36:08.584Z,62.60
2018-06-13T15:38:37.439Z,62.70
2018-06-13T15:41:06.232Z,62.90
2018-06-13T15:43:34.933Z,62.90
2018-06-13T15:46:03.747Z,63.00
2018-06-13T15:48:33.504Z,63.20
2018-06-13T15:51:02.429Z,62.60
2018-06-13T15:53:31.096Z,63.30
2018-06-13T15:55:59.937Z,63.20
2018-06-13T15:58:28.720Z,62.90
2018-06-13T16:00:57.398Z,62.70
2018-06-13T16:03:26.056Z,62.90
2018-06-13T16:05:54.872Z,63.10
2018-06-13T16:08:23.568Z,63.60
2018-06-13T16:10:52.320Z,63.80
2018-06-13T16:15:49.245Z,64.20
2018-06-13T16:18:17.916Z,64.30
2018-06-13T16:20:46.657Z,64.70
2018-06-13T16:23:15.439Z,64.70
2018-06-13T16:25:44.111Z,64.80
2018-06-13T16:28:12.840Z,64.90
2018-06-13T16:30:41.617Z,65.80
2018-06-13T16:33:10.531Z,65.80
2018-06-13T16:35:39.326Z,66.60
2018-06-13T16:38:07.997Z,66.30
2018-06-13T16:40:36.676Z,66.10
2018-06-13T16:43:05.473Z,66.70
2018-06-13T16:45:34.287Z,67.20
2018-06-13T16:48:03.075Z,67.10
2018-06-13T16:50:42.895Z,66.80
2018-06-13T16:53:20.184Z,67.10
2018-06-13T16:55:49.104Z,67.30
2018-06-13T16:58:17.775Z,67.40
2018-06-13T17:00:50.666Z,66.90
2018-06-13T17:03:19.568Z,67.00
2018-06-13T17:05:48.240Z,67.10
2018-06-13T17:08:28.715Z,67.70
2018-06-13T17:11:02.312Z,68.20
2018-06-13T17:13:36.028Z,68.80
2018-06-13T17:16:04.901Z,68.10
2018-06-13T17:18:33.983Z,68.70
2018-06-13T17:21:03.072Z,68.20
2018-06-13T17:23:32.207Z,68.70
2018-06-13T17:26:01.372Z,68.50
2018-06-13T17:28:30.569Z,68.60
2018-06-13T17:30:59.749Z,68.20
2018-06-13T17:33:28.924Z,68.50
2018-06-13T17:38:26.646Z,68.90
2018-06-13T17:40:55.642Z,68.60
2018-06-13T17:43:24.442Z,69.20
2018-06-13T17:45:53.280Z,69.00
2018-06-13T17:48:22.418Z,69.40
2018-06-13T17:50:51.476Z,69.50
2018-06-13T17:53:20.714Z,69.30
2018-06-13T17:55:49.641Z,69.70
2018-06-13T18:00:46.902Z,70.70
2018-06-13T18:03:15.764Z,70.00
2018-06-13T18:05:45.104Z,71.10
2018-06-13T18:08:13.941Z,70.10
2018-06-13T18:10:43.060Z,70.00
2018-06-13T18:13:12.134Z,70.40
2018-06-13T18:15:41.196Z,70.40
2018-06-13T18:18:09.936Z,70.80
2018-06-13T18:20:38.800Z,70.60
2018-06-13T18:23:07.519Z,70.70
2018-06-13T18:25:36.194Z,70.50
2018-06-13T18:28:13.107Z,70.00
2018-06-13T18:30:42.064Z,69.70
2018-06-13T18:33:10.904Z,69.60
2018-06-13T18:35:39.849Z,69.50
2018-06-13T18:38:08.868Z,70.10
2018-06-13T18:40:37.737Z,70.10
2018-06-13T18:43:06.434Z,70.30
2018-06-13T18:45:35.861Z,71.10
2018-06-13T18:48:04.894Z,70.70
2018-06-13T18:50:33.717Z,71.40
2018-06-13T18:53:02.566Z,71.20
2018-06-13T18:55:31.591Z,71.00
2018-06-13T18:58:00.886Z,70.90
2018-06-13T19:00:29.822Z,71.30
2018-06-13T19:02:58.880Z,71.70
2018-06-13T19:05:28.061Z,71.70
2018-06-13T19:07:57.307Z,72.20
2018-06-13T19:10:26.526Z,72.40
2018-06-13T19:12:55.471Z,72.10
2018-06-13T19:15:24.835Z,71.80
2018-06-13T19:17:53.873Z,71.80
2018-06-13T19:20:22.860Z,72.10
2018-06-13T19:22:52.140Z,72.00
2018-06-13T19:25:21.056Z,71.40
2018-06-13T19:27:50.227Z,71.70
2018-06-13T19:30:19.021Z,72.40
2018-06-13T19:32:48.391Z,72.60
2018-06-13T19:35:17.484Z,72.20
2018-06-13T19:37:46.576Z,72.30
2018-06-13T19:40:15.817Z,72.60
2018-06-13T19:42:44.861Z,72.90
2018-06-13T19:45:13.822Z,73.00
2018-06-13T19:47:47.916Z,72.80
2018-06-13T19:50:16.758Z,73.20
2018-06-13T19:52:50.998Z,73.00
2018-06-13T19:55:25.228Z,73.10
2018-06-13T19:57:54.166Z,72.50
2018-06-13T20:00:23.385Z,72.80
2018-06-13T20:02:57.524Z,72.60
2018-06-13T20:05:31.612Z,72.80
2018-06-13T20:08:00.596Z,73.30
2018-06-13T20:10:29.459Z,72.70
2018-06-13T20:13:03.824Z,73.00
2018-06-13T20:15:38.031Z,73.00
2018-06-13T20:18:12.140Z,73.20
2018-06-13T20:20:42.177Z,73.30
2018-06-13T20:23:11.035Z,73.80
2018-06-13T20:25:45.011Z,73.30
2018-06-13T20:28:19.184Z,73.80
2018-06-13T20:30:53.358Z,74.00
2018-06-13T20:33:22.336Z,74.00
2018-06-13T20:35:51.069Z,74.00
2018-06-13T20:38:19.708Z,74.00
2018-06-13T20:40:48.546Z,74.10
2018-06-13T20:43:17.294Z,74.00
2018-06-13T20:45:46.044Z,74.00
2018-06-13T20:48:14.737Z,73.90
2018-06-13T20:50:43.522Z,74.00
2018-06-13T20:53:12.281Z,74.60
2018-06-13T20:55:41.042Z,74.60
2018-06-13T20:58:09.785Z,74.50
2018-06-13T21:00:38.588Z,74.40
2018-06-13T21:03:07.307Z,74.10
2018-06-13T21:05:36.177Z,74.40
2018-06-13T21:08:04.978Z,74.30
2018-06-13T21:10:33.781Z,74.60
2018-06-13T21:13:02.595Z,74.40
2018-06-13T21:15:31.350Z,74.70
2018-06-13T21:18:00.160Z,75.90
2018-06-13T21:20:29.021Z,75.00
2018-06-13T21:22:57.851Z,74.90
2018-06-13T21:25:26.754Z,75.00
2018-06-13T21:27:55.423Z,74.80
2018-06-13T21:30:24.291Z,75.10
2018-06-13T21:32:52.948Z,75.50
2018-06-13T21:35:21.762Z,75.40
2018-06-13T21:37:50.489Z,75.40
2018-06-13T21:40:19.276Z,75.20
2018-06-13T21:42:48.212Z,75.10
2018-06-13T21:45:17.012Z,75.50
2018-06-13T21:47:45.624Z,75.80
2018-06-13T21:50:14.321Z,75.60
2018-06-13T21:52:43.211Z,75.70
2018-06-13T21:55:11.932Z,75.70
2018-06-13T21:57:40.861Z,75.50
2018-06-13T22:00:11.225Z,75.70
2018-06-13T22:02:40.334Z,76.40
2018-06-13T22:05:09.177Z,76.00
2018-06-13T22:07:37.887Z,76.10
2018-06-13T22:10:06.667Z,75.90
2018-06-13T22:12:35.745Z,75.90
2018-06-13T22:15:04.577Z,75.80
2018-06-13T22:17:33.526Z,75.80
2018-06-13T22:20:02.418Z,76.00
2018-06-13T22:22:31.207Z,75.70
2018-06-13T22:24:59.961Z,76.00
2018-06-13T22:27:28.887Z,75.80
2018-06-13T22:29:57.637Z,75.70
2018-06-13T22:32:26.504Z,75.50
2018-06-13T22:37:23.842Z,75.60
2018-06-13T22:39:52.761Z,75.80
2018-06-13T22:42:21.630Z,75.70
2018-06-13T22:49:47.474Z,75.80
2018-06-13T22:52:16.132Z,75.80
2018-06-13T22:54:44.981Z,75.60
2018-06-13T22:57:13.852Z,75.50
2018-06-13T22:59:42.840Z,75.50
2018-06-13T23:02:11.727Z,75.40
2018-06-13T23:04:40.475Z,75.90
2018-06-13T23:07:09.278Z,75.60
2018-06-13T23:09:38.023Z,75.80
2018-06-13T23:12:06.778Z,75.60
2018-06-13T23:14:35.816Z,74.90
2018-06-13T23:17:04.701Z,75.50
2018-06-13T23:19:33.408Z,75.30
2018-06-13T23:22:02.160Z,75.50
2018-06-13T23:24:31.107Z,75.30
2018-06-13T23:26:59.932Z,75.30
2018-06-13T23:29:28.871Z,75.30
2018-06-13T23:31:57.805Z,75.50
2018-06-13T23:34:26.569Z,75.70
2018-06-13T23:36:55.265Z,75.40
2018-06-13T23:39:24.071Z,75.30
2018-06-13T23:41:53.131Z,75.10
2018-06-13T23:44:22.090Z,74.90
2018-06-13T23:46:50.874Z,74.90
2018-06-13T23:49:19.840Z,74.90
2018-06-13T23:51:48.702Z,75.00
2018-06-13T23:54:17.620Z,74.60
2018-06-13T23:56:46.410Z,75.00
2018-06-13T23:59:15.407Z,75.20
